sensor_id;sensor_type;location;lat;lon;timestamp;P1;durP1;ratioP1;P2;durP2;ratioP2
62687;SDS011;48752;51.056;17.056;2022-11-30T00:01:29;95.80;;;44.03;;
62687;SDS011;48752;51.056;17.056;2022-11-30T00:03:56;99.97;;;43.95;;
62687;SDS011;48752;51.056;17.056;2022-11-30T00:06:23;103.93;;;44.05;;
62687;SDS011;48752;51.056;17.056;2022-11-30T00:08:54;98.38;;;43.78;;
62687;SDS011;48752;51.056;17.056;2022-11-30T00:11:20;93.40;;;44.25;;
62687;SDS011;48752;51.056;17.056;2022-11-30T00:13:48;99.72;;;43.67;;
62687;SDS011;48752;51.056;17.056;2022-11-30T00:16:15;105.18;;;44.33;;
62687;SDS011;48752;51.056;17.056;2022-11-30T00:18:53;96.32;;;42.63;;
62687;SDS011;48752;51.056;17.056;2022-11-30T00:21:19;109.70;;;45.33;;
62687;SDS011;48752;51.056;17.056;2022-11-30T00:23:45;116.82;;;46.42;;
62687;SDS011;48752;51.056;17.056;2022-11-30T00:26:19;100.38;;;44.50;;
62687;SDS011;48752;51.056;17.056;2022-11-30T00:28:49;108.28;;;45.78;;
62687;SDS011;48752;51.056;17.056;2022-11-30T00:31:16;110.78;;;44.80;;
62687;SDS011;48752;51.056;17.056;2022-11-30T00:33:43;106.18;;;44.28;;
62687;SDS011;48752;51.056;17.056;2022-11-30T00:36:10;104.82;;;43.92;;
62687;SDS011;48752;51.056;17.056;2022-11-30T00:38:38;102.72;;;45.05;;
62687;SDS011;48752;51.056;17.056;2022-11-30T00:41:12;104.75;;;45.10;;
62687;SDS011;48752;51.056;17.056;2022-11-30T00:43:50;101.80;;;44.15;;
62687;SDS011;48752;51.056;17.056;2022-11-30T00:46:15;102.80;;;43.92;;
62687;SDS011;48752;51.056;17.056;2022-11-30T00:48:41;101.20;;;43.50;;
62687;SDS011;48752;51.056;17.056;2022-11-30T00:51:07;104.85;;;44.55;;
62687;SDS011;48752;51.056;17.056;2022-11-30T00:53:35;104.95;;;45.90;;
62687;SDS011;48752;51.056;17.056;2022-11-30T00:56:02;96.93;;;42.53;;
62687;SDS011;48752;51.056;17.056;2022-11-30T00:58:29;112.15;;;46.42;;
62687;SDS011;48752;51.056;17.056;2022-11-30T01:00:54;108.35;;;46.10;;
62687;SDS011;48752;51.056;17.056;2022-11-30T01:03:22;109.45;;;45.80;;
62687;SDS011;48752;51.056;17.056;2022-11-30T01:05:47;113.55;;;49.17;;
62687;SDS011;48752;51.056;17.056;2022-11-30T01:08:16;113.80;;;44.45;;
62687;SDS011;48752;51.056;17.056;2022-11-30T01:10:42;106.97;;;46.58;;
62687;SDS011;48752;51.056;17.056;2022-11-30T01:13:18;113.18;;;48.85;;
62687;SDS011;48752;51.056;17.056;2022-11-30T01:15:48;111.65;;;47.53;;
62687;SDS011;48752;51.056;17.056;2022-11-30T01:18:14;120.07;;;46.80;;
62687;SDS011;48752;51.056;17.056;2022-11-30T01:20:41;116.82;;;48.13;;
62687;SDS011;48752;51.056;17.056;2022-11-30T01:23:30;116.78;;;47.83;;
62687;SDS011;48752;51.056;17.056;2022-11-30T01:25:58;99.53;;;44.38;;
62687;SDS011;48752;51.056;17.056;2022-11-30T01:28:23;112.00;;;47.60;;
62687;SDS011;48752;51.056;17.056;2022-11-30T01:31:00;110.45;;;47.50;;
62687;SDS011;48752;51.056;17.056;2022-11-30T01:33:34;96.78;;;43.40;;
62687;SDS011;48752;51.056;17.056;2022-11-30T01:36:01;107.78;;;47.22;;
62687;SDS011;48752;51.056;17.056;2022-11-30T01:38:39;124.05;;;47.75;;
62687;SDS011;48752;51.056;17.056;2022-11-30T01:41:08;116.75;;;50.15;;
62687;SDS011;48752;51.056;17.056;2022-11-30T01:43:48;105.05;;;46.63;;
62687;SDS011;48752;51.056;17.056;2022-11-30T01:49:34;106.22;;;45.35;;
62687;SDS011;48752;51.056;17.056;2022-11-30T01:52:12;110.05;;;47.42;;
62687;SDS011;48752;51.056;17.056;2022-11-30T01:54:46;109.55;;;43.83;;
62687;SDS011;48752;51.056;17.056;2022-11-30T01:57:18;117.28;;;49.35;;
62687;SDS011;48752;51.056;17.056;2022-11-30T01:59:47;107.55;;;46.40;;
62687;SDS011;48752;51.056;17.056;2022-11-30T02:02:14;110.55;;;45.33;;
62687;SDS011;48752;51.056;17.056;2022-11-30T02:04:41;110.68;;;45.47;;
62687;SDS011;48752;51.056;17.056;2022-11-30T02:07:07;113.13;;;49.30;;
62687;SDS011;48752;51.056;17.056;2022-11-30T02:09:34;111.30;;;44.78;;
62687;SDS011;48752;51.056;17.056;2022-11-30T02:12:04;107.15;;;45.35;;
62687;SDS011;48752;51.056;17.056;2022-11-30T02:14:39;120.30;;;48.47;;
62687;SDS011;48752;51.056;17.056;2022-11-30T02:25:41;133.13;;;47.67;;
62687;SDS011;48752;51.056;17.056;2022-11-30T02:28:21;115.15;;;46.80;;
62687;SDS011;48752;51.056;17.056;2022-11-30T02:31:19;114.45;;;46.13;;
62687;SDS011;48752;51.056;17.056;2022-11-30T02:33:47;125.03;;;51.00;;
62687;SDS011;48752;51.056;17.056;2022-11-30T02:36:14;134.00;;;48.90;;
62687;SDS011;48752;51.056;17.056;2022-11-30T02:38:40;130.65;;;47.72;;
62687;SDS011;48752;51.056;17.056;2022-11-30T02:41:06;125.20;;;47.90;;
62687;SDS011;48752;51.056;17.056;2022-11-30T02:43:31;127.75;;;48.25;;
62687;SDS011;48752;51.056;17.056;2022-11-30T02:48:52;144.70;;;49.65;;
62687;SDS011;48752;51.056;17.056;2022-11-30T02:51:21;140.55;;;50.53;;
62687;SDS011;48752;51.056;17.056;2022-11-30T02:53:49;142.10;;;50.55;;
62687;SDS011;48752;51.056;17.056;2022-11-30T02:56:14;133.85;;;50.15;;
62687;SDS011;48752;51.056;17.056;2022-11-30T02:58:41;137.45;;;50.30;;
62687;SDS011;48752;51.056;17.056;2022-11-30T03:01:07;146.43;;;52.60;;
62687;SDS011;48752;51.056;17.056;2022-11-30T03:03:32;140.02;;;48.83;;
62687;SDS011;48752;51.056;17.056;2022-11-30T03:05:57;149.13;;;50.55;;
62687;SDS011;48752;51.056;17.056;2022-11-30T03:08:23;131.18;;;47.10;;
62687;SDS011;48752;51.056;17.056;2022-11-30T03:10:48;136.23;;;50.83;;
62687;SDS011;48752;51.056;17.056;2022-11-30T03:13:13;144.23;;;51.20;;
62687;SDS011;48752;51.056;17.056;2022-11-30T03:15:39;157.55;;;52.35;;
62687;SDS011;48752;51.056;17.056;2022-11-30T03:18:04;153.45;;;50.50;;
62687;SDS011;48752;51.056;17.056;2022-11-30T03:20:30;143.40;;;50.60;;
62687;SDS011;48752;51.056;17.056;2022-11-30T03:22:59;149.13;;;48.40;;
62687;SDS011;48752;51.056;17.056;2022-11-30T03:25:25;139.60;;;49.28;;
62687;SDS011;48752;51.056;17.056;2022-11-30T03:27:51;149.77;;;48.78;;
62687;SDS011;48752;51.056;17.056;2022-11-30T03:30:17;149.85;;;51.47;;
62687;SDS011;48752;51.056;17.056;2022-11-30T03:32:42;156.65;;;52.28;;
62687;SDS011;48752;51.056;17.056;2022-11-30T03:35:08;146.68;;;47.50;;
62687;SDS011;48752;51.056;17.056;2022-11-30T03:37:33;145.90;;;47.80;;
62687;SDS011;48752;51.056;17.056;2022-11-30T03:39:58;144.38;;;49.28;;
62687;SDS011;48752;51.056;17.056;2022-11-30T03:42:24;156.20;;;48.60;;
62687;SDS011;48752;51.056;17.056;2022-11-30T03:44:49;158.85;;;49.05;;
62687;SDS011;48752;51.056;17.056;2022-11-30T03:47:15;144.00;;;48.40;;
62687;SDS011;48752;51.056;17.056;2022-11-30T03:49:40;155.57;;;45.90;;
62687;SDS011;48752;51.056;17.056;2022-11-30T03:52:05;133.70;;;45.00;;
62687;SDS011;48752;51.056;17.056;2022-11-30T03:54:31;158.02;;;50.15;;
62687;SDS011;48752;51.056;17.056;2022-11-30T03:56:56;148.40;;;47.25;;
62687;SDS011;48752;51.056;17.056;2022-11-30T03:59:21;159.38;;;48.55;;
62687;SDS011;48752;51.056;17.056;2022-11-30T04:01:47;153.32;;;47.50;;
62687;SDS011;48752;51.056;17.056;2022-11-30T04:04:12;155.63;;;51.33;;
62687;SDS011;48752;51.056;17.056;2022-11-30T04:06:37;152.18;;;46.88;;
62687;SDS011;48752;51.056;17.056;2022-11-30T04:09:04;145.57;;;45.78;;
62687;SDS011;48752;51.056;17.056;2022-11-30T04:11:29;158.77;;;49.20;;
62687;SDS011;48752;51.056;17.056;2022-11-30T04:13:55;160.75;;;46.30;;
62687;SDS011;48752;51.056;17.056;2022-11-30T04:16:20;154.57;;;46.70;;
62687;SDS011;48752;51.056;17.056;2022-11-30T04:18:45;161.57;;;46.40;;
62687;SDS011;48752;51.056;17.056;2022-11-30T04:21:11;167.38;;;45.53;;
62687;SDS011;48752;51.056;17.056;2022-11-30T04:23:37;162.93;;;48.47;;
62687;SDS011;48752;51.056;17.056;2022-11-30T04:26:04;139.57;;;44.67;;
62687;SDS011;48752;51.056;17.056;2022-11-30T04:28:31;159.10;;;48.47;;
62687;SDS011;48752;51.056;17.056;2022-11-30T04:30:57;150.73;;;46.63;;
62687;SDS011;48752;51.056;17.056;2022-11-30T04:33:24;150.35;;;46.45;;
62687;SDS011;48752;51.056;17.056;2022-11-30T04:35:57;165.15;;;47.42;;
62687;SDS011;48752;51.056;17.056;2022-11-30T04:38:23;166.65;;;47.95;;
62687;SDS011;48752;51.056;17.056;2022-11-30T04:40:50;164.93;;;45.95;;
62687;SDS011;48752;51.056;17.056;2022-11-30T04:43:15;139.90;;;44.97;;
62687;SDS011;48752;51.056;17.056;2022-11-30T04:45:41;142.73;;;44.72;;
62687;SDS011;48752;51.056;17.056;2022-11-30T04:48:07;165.45;;;49.53;;
62687;SDS011;48752;51.056;17.056;2022-11-30T04:50:33;155.75;;;45.80;;
62687;SDS011;48752;51.056;17.056;2022-11-30T04:52:58;166.63;;;46.17;;
62687;SDS011;48752;51.056;17.056;2022-11-30T04:55:24;157.75;;;46.58;;
62687;SDS011;48752;51.056;17.056;2022-11-30T04:57:49;163.88;;;48.72;;
62687;SDS011;48752;51.056;17.056;2022-11-30T05:00:15;153.65;;;46.08;;
62687;SDS011;48752;51.056;17.056;2022-11-30T05:02:41;142.68;;;42.83;;
62687;SDS011;48752;51.056;17.056;2022-11-30T05:05:07;150.48;;;47.25;;
62687;SDS011;48752;51.056;17.056;2022-11-30T05:07:33;155.43;;;46.30;;
62687;SDS011;48752;51.056;17.056;2022-11-30T05:09:58;145.80;;;45.20;;
62687;SDS011;48752;51.056;17.056;2022-11-30T05:12:24;158.73;;;45.00;;
62687;SDS011;48752;51.056;17.056;2022-11-30T05:14:49;151.18;;;43.15;;
62687;SDS011;48752;51.056;17.056;2022-11-30T05:17:14;139.40;;;48.15;;
62687;SDS011;48752;51.056;17.056;2022-11-30T05:19:40;148.15;;;43.72;;
62687;SDS011;48752;51.056;17.056;2022-11-30T05:22:05;136.60;;;44.80;;
62687;SDS011;48752;51.056;17.056;2022-11-30T05:24:30;156.80;;;43.55;;
62687;SDS011;48752;51.056;17.056;2022-11-30T05:26:56;146.65;;;46.17;;
62687;SDS011;48752;51.056;17.056;2022-11-30T05:29:21;148.98;;;44.67;;
62687;SDS011;48752;51.056;17.056;2022-11-30T05:31:47;135.38;;;40.10;;
62687;SDS011;48752;51.056;17.056;2022-11-30T05:34:12;160.80;;;49.10;;
62687;SDS011;48752;51.056;17.056;2022-11-30T05:36:38;141.05;;;43.78;;
62687;SDS011;48752;51.056;17.056;2022-11-30T05:39:03;146.13;;;43.80;;
62687;SDS011;48752;51.056;17.056;2022-11-30T05:41:30;151.25;;;44.05;;
62687;SDS011;48752;51.056;17.056;2022-11-30T05:43:55;143.57;;;42.22;;
62687;SDS011;48752;51.056;17.056;2022-11-30T05:46:21;132.20;;;43.15;;
62687;SDS011;48752;51.056;17.056;2022-11-30T05:48:48;138.70;;;44.90;;
62687;SDS011;48752;51.056;17.056;2022-11-30T05:51:15;159.80;;;44.00;;
62687;SDS011;48752;51.056;17.056;2022-11-30T05:53:44;138.45;;;41.30;;
62687;SDS011;48752;51.056;17.056;2022-11-30T05:56:15;138.75;;;39.90;;
62687;SDS011;48752;51.056;17.056;2022-11-30T05:58:44;133.57;;;39.63;;
62687;SDS011;48752;51.056;17.056;2022-11-30T06:01:21;147.93;;;44.17;;
62687;SDS011;48752;51.056;17.056;2022-11-30T06:03:49;123.00;;;40.95;;
62687;SDS011;48752;51.056;17.056;2022-11-30T06:06:15;131.95;;;39.60;;
62687;SDS011;48752;51.056;17.056;2022-11-30T06:08:43;139.88;;;42.08;;
62687;SDS011;48752;51.056;17.056;2022-11-30T06:11:08;132.20;;;41.10;;
62687;SDS011;48752;51.056;17.056;2022-11-30T06:13:34;122.72;;;38.55;;
62687;SDS011;48752;51.056;17.056;2022-11-30T06:16:00;128.55;;;42.22;;
62687;SDS011;48752;51.056;17.056;2022-11-30T06:18:26;120.93;;;38.65;;
62687;SDS011;48752;51.056;17.056;2022-11-30T06:20:52;140.20;;;40.28;;
62687;SDS011;48752;51.056;17.056;2022-11-30T06:23:18;129.23;;;39.40;;
62687;SDS011;48752;51.056;17.056;2022-11-30T06:26:05;147.05;;;41.35;;
62687;SDS011;48752;51.056;17.056;2022-11-30T06:28:32;140.80;;;42.95;;
62687;SDS011;48752;51.056;17.056;2022-11-30T06:30:59;136.88;;;42.63;;
62687;SDS011;48752;51.056;17.056;2022-11-30T06:33:33;127.10;;;40.05;;
62687;SDS011;48752;51.056;17.056;2022-11-30T06:35:59;126.90;;;41.15;;
62687;SDS011;48752;51.056;17.056;2022-11-30T06:38:26;129.02;;;39.42;;
62687;SDS011;48752;51.056;17.056;2022-11-30T06:41:06;124.90;;;38.97;;
62687;SDS011;48752;51.056;17.056;2022-11-30T06:43:47;124.05;;;35.67;;
62687;SDS011;48752;51.056;17.056;2022-11-30T06:46:13;103.55;;;34.75;;
62687;SDS011;48752;51.056;17.056;2022-11-30T06:48:39;122.60;;;38.28;;
62687;SDS011;48752;51.056;17.056;2022-11-30T06:51:07;115.60;;;36.35;;
62687;SDS011;48752;51.056;17.056;2022-11-30T06:53:34;121.38;;;37.65;;
62687;SDS011;48752;51.056;17.056;2022-11-30T06:56:09;122.25;;;39.65;;
62687;SDS011;48752;51.056;17.056;2022-11-30T06:58:37;116.55;;;39.08;;
62687;SDS011;48752;51.056;17.056;2022-11-30T07:01:08;130.70;;;40.28;;
62687;SDS011;48752;51.056;17.056;2022-11-30T07:03:37;111.65;;;37.85;;
62687;SDS011;48752;51.056;17.056;2022-11-30T07:06:07;113.78;;;36.45;;
62687;SDS011;48752;51.056;17.056;2022-11-30T07:08:36;121.55;;;37.97;;
62687;SDS011;48752;51.056;17.056;2022-11-30T07:11:02;107.30;;;37.10;;
62687;SDS011;48752;51.056;17.056;2022-11-30T07:13:28;117.03;;;37.38;;
62687;SDS011;48752;51.056;17.056;2022-11-30T07:15:54;112.50;;;36.40;;
62687;SDS011;48752;51.056;17.056;2022-11-30T07:18:20;115.28;;;39.10;;
62687;SDS011;48752;51.056;17.056;2022-11-30T07:20:45;123.80;;;38.15;;
62687;SDS011;48752;51.056;17.056;2022-11-30T07:23:12;121.80;;;36.88;;
62687;SDS011;48752;51.056;17.056;2022-11-30T07:25:58;127.82;;;42.40;;
62687;SDS011;48752;51.056;17.056;2022-11-30T07:28:38;129.48;;;40.15;;
62687;SDS011;48752;51.056;17.056;2022-11-30T07:31:12;120.05;;;36.55;;
62687;SDS011;48752;51.056;17.056;2022-11-30T07:33:53;107.82;;;35.15;;
62687;SDS011;48752;51.056;17.056;2022-11-30T07:36:21;102.72;;;36.75;;
62687;SDS011;48752;51.056;17.056;2022-11-30T07:38:49;103.90;;;36.03;;
62687;SDS011;48752;51.056;17.056;2022-11-30T07:41:17;101.35;;;33.83;;
62687;SDS011;48752;51.056;17.056;2022-11-30T07:43:43;103.80;;;37.53;;
62687;SDS011;48752;51.056;17.056;2022-11-30T07:46:13;106.90;;;35.20;;
62687;SDS011;48752;51.056;17.056;2022-11-30T07:48:41;114.35;;;36.95;;
62687;SDS011;48752;51.056;17.056;2022-11-30T07:51:10;111.75;;;37.33;;
62687;SDS011;48752;51.056;17.056;2022-11-30T07:53:37;105.50;;;36.65;;
62687;SDS011;48752;51.056;17.056;2022-11-30T07:56:10;108.65;;;34.67;;
62687;SDS011;48752;51.056;17.056;2022-11-30T07:58:37;103.32;;;36.47;;
62687;SDS011;48752;51.056;17.056;2022-11-30T08:01:03;108.80;;;36.65;;
62687;SDS011;48752;51.056;17.056;2022-11-30T08:03:30;110.25;;;37.85;;
62687;SDS011;48752;51.056;17.056;2022-11-30T08:06:03;118.90;;;39.75;;
62687;SDS011;48752;51.056;17.056;2022-11-30T08:08:33;116.00;;;39.42;;
62687;SDS011;48752;51.056;17.056;2022-11-30T08:11:03;110.32;;;38.97;;
62687;SDS011;48752;51.056;17.056;2022-11-30T08:13:30;109.65;;;37.00;;
62687;SDS011;48752;51.056;17.056;2022-11-30T08:15:59;99.22;;;35.05;;
62687;SDS011;48752;51.056;17.056;2022-11-30T08:18:25;118.40;;;37.25;;
62687;SDS011;48752;51.056;17.056;2022-11-30T08:21:00;108.75;;;35.63;;
62687;SDS011;48752;51.056;17.056;2022-11-30T08:23:27;104.95;;;35.10;;
62687;SDS011;48752;51.056;17.056;2022-11-30T08:26:01;118.28;;;36.63;;
62687;SDS011;48752;51.056;17.056;2022-11-30T08:28:30;98.22;;;36.30;;
62687;SDS011;48752;51.056;17.056;2022-11-30T08:30:59;91.63;;;34.22;;
62687;SDS011;48752;51.056;17.056;2022-11-30T08:33:31;101.20;;;34.70;;
62687;SDS011;48752;51.056;17.056;2022-11-30T08:38:32;93.38;;;34.65;;
62687;SDS011;48752;51.056;17.056;2022-11-30T08:40:57;99.63;;;34.83;;
62687;SDS011;48752;51.056;17.056;2022-11-30T08:43:23;104.15;;;34.72;;
62687;SDS011;48752;51.056;17.056;2022-11-30T08:45:49;100.38;;;35.85;;
62687;SDS011;48752;51.056;17.056;2022-11-30T08:48:16;107.25;;;33.47;;
62687;SDS011;48752;51.056;17.056;2022-11-30T08:50:43;97.20;;;32.30;;
62687;SDS011;48752;51.056;17.056;2022-11-30T08:53:10;94.80;;;33.05;;
62687;SDS011;48752;51.056;17.056;2022-11-30T08:55:35;91.88;;;35.42;;
62687;SDS011;48752;51.056;17.056;2022-11-30T08:58:02;93.05;;;33.17;;
62687;SDS011;48752;51.056;17.056;2022-11-30T09:00:30;99.55;;;32.00;;
62687;SDS011;48752;51.056;17.056;2022-11-30T09:02:55;97.45;;;33.90;;
62687;SDS011;48752;51.056;17.056;2022-11-30T09:07:54;93.50;;;31.73;;
62687;SDS011;48752;51.056;17.056;2022-11-30T09:10:19;94.68;;;33.55;;
62687;SDS011;48752;51.056;17.056;2022-11-30T09:12:45;98.43;;;32.47;;
62687;SDS011;48752;51.056;17.056;2022-11-30T09:15:11;90.88;;;31.92;;
62687;SDS011;48752;51.056;17.056;2022-11-30T09:17:38;93.82;;;32.42;;
62687;SDS011;48752;51.056;17.056;2022-11-30T09:20:04;98.60;;;33.78;;
62687;SDS011;48752;51.056;17.056;2022-11-30T09:22:29;100.35;;;35.45;;
62687;SDS011;48752;51.056;17.056;2022-11-30T09:24:57;92.93;;;31.23;;
62687;SDS011;48752;51.056;17.056;2022-11-30T09:27:22;109.93;;;34.85;;
62687;SDS011;48752;51.056;17.056;2022-11-30T09:29:54;92.70;;;33.60;;
62687;SDS011;48752;51.056;17.056;2022-11-30T09:32:23;91.35;;;31.23;;
62687;SDS011;48752;51.056;17.056;2022-11-30T09:34:49;92.05;;;33.30;;
62687;SDS011;48752;51.056;17.056;2022-11-30T09:37:14;101.55;;;33.88;;
62687;SDS011;48752;51.056;17.056;2022-11-30T09:39:40;94.55;;;32.65;;
62687;SDS011;48752;51.056;17.056;2022-11-30T09:48:04;89.57;;;32.15;;
62687;SDS011;48752;51.056;17.056;2022-11-30T09:50:45;93.88;;;31.70;;
62687;SDS011;48752;51.056;17.056;2022-11-30T09:55:48;106.18;;;36.30;;
62687;SDS011;48752;51.056;17.056;2022-11-30T09:58:38;95.82;;;35.42;;
62687;SDS011;48752;51.056;17.056;2022-11-30T10:01:04;102.28;;;33.08;;
62687;SDS011;48752;51.056;17.056;2022-11-30T10:03:39;107.15;;;34.53;;
62687;SDS011;48752;51.056;17.056;2022-11-30T10:09:20;98.05;;;34.70;;
62687;SDS011;48752;51.056;17.056;2022-11-30T10:12:10;105.93;;;37.65;;
62687;SDS011;48752;51.056;17.056;2022-11-30T10:15:07;86.78;;;31.90;;
62687;SDS011;48752;51.056;17.056;2022-11-30T10:17:58;96.00;;;32.53;;
62687;SDS011;48752;51.056;17.056;2022-11-30T10:26:28;103.60;;;35.55;;
62687;SDS011;48752;51.056;17.056;2022-11-30T10:29:18;89.78;;;34.35;;
62687;SDS011;48752;51.056;17.056;2022-11-30T10:32:21;100.30;;;34.15;;
62687;SDS011;48752;51.056;17.056;2022-11-30T10:34:52;91.90;;;33.40;;
62687;SDS011;48752;51.056;17.056;2022-11-30T10:37:26;88.75;;;32.60;;
62687;SDS011;48752;51.056;17.056;2022-11-30T10:40:03;97.57;;;34.13;;
62687;SDS011;48752;51.056;17.056;2022-11-30T10:45:31;108.10;;;35.85;;
62687;SDS011;48752;51.056;17.056;2022-11-30T10:48:10;108.85;;;35.50;;
62687;SDS011;48752;51.056;17.056;2022-11-30T10:50:40;98.22;;;32.95;;
62687;SDS011;48752;51.056;17.056;2022-11-30T10:53:08;87.20;;;33.67;;
62687;SDS011;48752;51.056;17.056;2022-11-30T10:55:43;100.30;;;33.78;;
62687;SDS011;48752;51.056;17.056;2022-11-30T10:58:22;89.80;;;31.42;;
62687;SDS011;48752;51.056;17.056;2022-11-30T11:03:29;94.57;;;32.95;;
62687;SDS011;48752;51.056;17.056;2022-11-30T11:06:02;93.30;;;33.35;;
62687;SDS011;48752;51.056;17.056;2022-11-30T11:08:28;96.00;;;34.88;;
62687;SDS011;48752;51.056;17.056;2022-11-30T11:10:55;88.13;;;34.20;;
62687;SDS011;48752;51.056;17.056;2022-11-30T11:13:37;88.28;;;32.85;;
62687;SDS011;48752;51.056;17.056;2022-11-30T11:16:08;91.93;;;33.08;;
62687;SDS011;48752;51.056;17.056;2022-11-30T11:18:36;96.90;;;34.70;;
62687;SDS011;48752;51.056;17.056;2022-11-30T11:21:21;100.90;;;33.22;;
62687;SDS011;48752;51.056;17.056;2022-11-30T11:23:58;105.88;;;39.05;;
62687;SDS011;48752;51.056;17.056;2022-11-30T11:26:34;103.22;;;37.22;;
62687;SDS011;48752;51.056;17.056;2022-11-30T11:29:34;99.40;;;34.40;;
62687;SDS011;48752;51.056;17.056;2022-11-30T11:34:42;99.50;;;38.40;;
62687;SDS011;48752;51.056;17.056;2022-11-30T11:39:58;87.00;;;33.70;;
62687;SDS011;48752;51.056;17.056;2022-11-30T11:42:40;89.18;;;29.77;;
62687;SDS011;48752;51.056;17.056;2022-11-30T11:45:22;94.35;;;34.35;;
62687;SDS011;48752;51.056;17.056;2022-11-30T11:48:00;90.25;;;33.03;;
62687;SDS011;48752;51.056;17.056;2022-11-30T11:50:37;87.30;;;34.00;;
62687;SDS011;48752;51.056;17.056;2022-11-30T11:55:52;85.57;;;30.88;;
62687;SDS011;48752;51.056;17.056;2022-11-30T11:58:22;92.07;;;34.65;;
62687;SDS011;48752;51.056;17.056;2022-11-30T12:01:14;85.55;;;32.25;;
62687;SDS011;48752;51.056;17.056;2022-11-30T12:03:56;80.00;;;30.58;;
62687;SDS011;48752;51.056;17.056;2022-11-30T12:09:18;76.35;;;28.88;;
62687;SDS011;48752;51.056;17.056;2022-11-30T12:11:47;90.03;;;29.75;;
62687;SDS011;48752;51.056;17.056;2022-11-30T12:14:15;77.85;;;31.00;;
62687;SDS011;48752;51.056;17.056;2022-11-30T12:27:11;85.43;;;29.17;;
62687;SDS011;48752;51.056;17.056;2022-11-30T12:42:41;57.95;;;26.88;;
62687;SDS011;48752;51.056;17.056;2022-11-30T12:58:50;64.75;;;25.77;;
62687;SDS011;48752;51.056;17.056;2022-11-30T13:06:59;56.90;;;24.73;;
62687;SDS011;48752;51.056;17.056;2022-11-30T13:09:29;60.85;;;24.75;;
62687;SDS011;48752;51.056;17.056;2022-11-30T13:14:37;62.83;;;26.23;;
62687;SDS011;48752;51.056;17.056;2022-11-30T13:17:05;67.43;;;26.73;;
62687;SDS011;48752;51.056;17.056;2022-11-30T13:19:57;56.75;;;26.33;;
62687;SDS011;48752;51.056;17.056;2022-11-30T13:25:32;59.72;;;25.88;;
62687;SDS011;48752;51.056;17.056;2022-11-30T13:44:31;65.05;;;25.50;;
62687;SDS011;48752;51.056;17.056;2022-11-30T13:47:01;53.95;;;24.88;;
62687;SDS011;48752;51.056;17.056;2022-11-30T13:49:35;57.38;;;22.40;;
62687;SDS011;48752;51.056;17.056;2022-11-30T13:52:01;61.75;;;25.55;;
62687;SDS011;48752;51.056;17.056;2022-11-30T13:59:54;51.97;;;22.58;;
62687;SDS011;48752;51.056;17.056;2022-11-30T14:07:43;48.78;;;21.85;;
62687;SDS011;48752;51.056;17.056;2022-11-30T14:10:31;55.42;;;22.38;;
62687;SDS011;48752;51.056;17.056;2022-11-30T14:18:48;58.92;;;23.77;;
62687;SDS011;48752;51.056;17.056;2022-11-30T14:29:30;56.35;;;22.80;;
62687;SDS011;48752;51.056;17.056;2022-11-30T14:32:06;53.40;;;24.77;;
62687;SDS011;48752;51.056;17.056;2022-11-30T14:34:51;54.50;;;24.35;;
62687;SDS011;48752;51.056;17.056;2022-11-30T14:37:21;60.47;;;25.05;;
62687;SDS011;48752;51.056;17.056;2022-11-30T14:40:00;61.55;;;24.95;;
62687;SDS011;48752;51.056;17.056;2022-11-30T14:42:29;61.83;;;25.83;;
62687;SDS011;48752;51.056;17.056;2022-11-30T14:44:56;65.00;;;28.92;;
62687;SDS011;48752;51.056;17.056;2022-11-30T14:49:55;62.25;;;25.33;;
62687;SDS011;48752;51.056;17.056;2022-11-30T14:52:55;52.35;;;23.73;;
62687;SDS011;48752;51.056;17.056;2022-11-30T14:55:30;64.43;;;26.00;;
62687;SDS011;48752;51.056;17.056;2022-11-30T15:00:46;60.58;;;23.20;;
62687;SDS011;48752;51.056;17.056;2022-11-30T15:03:29;54.78;;;25.65;;
62687;SDS011;48752;51.056;17.056;2022-11-30T15:05:58;64.63;;;29.00;;
62687;SDS011;48752;51.056;17.056;2022-11-30T15:08:42;60.40;;;25.35;;
62687;SDS011;48752;51.056;17.056;2022-11-30T15:11:14;58.13;;;24.83;;
62687;SDS011;48752;51.056;17.056;2022-11-30T15:13:48;59.83;;;24.90;;
62687;SDS011;48752;51.056;17.056;2022-11-30T15:16:19;61.28;;;26.13;;
62687;SDS011;48752;51.056;17.056;2022-11-30T15:18:47;73.00;;;26.50;;
62687;SDS011;48752;51.056;17.056;2022-11-30T15:21:34;76.97;;;28.20;;
62687;SDS011;48752;51.056;17.056;2022-11-30T15:23:59;70.28;;;28.10;;
62687;SDS011;48752;51.056;17.056;2022-11-30T15:28:59;69.88;;;31.05;;
62687;SDS011;48752;51.056;17.056;2022-11-30T15:31:33;67.05;;;28.77;;
62687;SDS011;48752;51.056;17.056;2022-11-30T15:34:17;66.70;;;29.15;;
62687;SDS011;48752;51.056;17.056;2022-11-30T15:36:45;80.43;;;28.83;;
62687;SDS011;48752;51.056;17.056;2022-11-30T15:39:18;65.03;;;28.15;;
62687;SDS011;48752;51.056;17.056;2022-11-30T15:41:55;66.28;;;30.23;;
62687;SDS011;48752;51.056;17.056;2022-11-30T15:44:38;62.78;;;27.50;;
62687;SDS011;48752;51.056;17.056;2022-11-30T15:47:23;73.57;;;31.13;;
62687;SDS011;48752;51.056;17.056;2022-11-30T15:49:52;73.35;;;29.52;;
62687;SDS011;48752;51.056;17.056;2022-11-30T15:52:25;68.90;;;29.35;;
62687;SDS011;48752;51.056;17.056;2022-11-30T15:54:55;78.25;;;30.17;;
62687;SDS011;48752;51.056;17.056;2022-11-30T16:00:30;71.40;;;28.25;;
62687;SDS011;48752;51.056;17.056;2022-11-30T16:03:07;64.60;;;26.02;;
62687;SDS011;48752;51.056;17.056;2022-11-30T16:05:33;61.92;;;29.10;;
62687;SDS011;48752;51.056;17.056;2022-11-30T16:08:03;74.38;;;30.67;;
62687;SDS011;48752;51.056;17.056;2022-11-30T16:10:35;72.82;;;29.15;;
62687;SDS011;48752;51.056;17.056;2022-11-30T16:13:13;77.53;;;30.67;;
62687;SDS011;48752;51.056;17.056;2022-11-30T16:15:44;66.03;;;28.13;;
62687;SDS011;48752;51.056;17.056;2022-11-30T16:18:22;66.15;;;29.08;;
62687;SDS011;48752;51.056;17.056;2022-11-30T16:20:52;67.55;;;27.27;;
62687;SDS011;48752;51.056;17.056;2022-11-30T16:23:41;67.47;;;27.73;;
62687;SDS011;48752;51.056;17.056;2022-11-30T16:26:11;64.43;;;27.83;;
62687;SDS011;48752;51.056;17.056;2022-11-30T16:28:54;71.72;;;30.52;;
62687;SDS011;48752;51.056;17.056;2022-11-30T16:31:23;76.18;;;32.35;;
62687;SDS011;48752;51.056;17.056;2022-11-30T16:33:49;70.18;;;31.40;;
62687;SDS011;48752;51.056;17.056;2022-11-30T16:36:19;72.22;;;31.98;;
62687;SDS011;48752;51.056;17.056;2022-11-30T16:38:46;67.30;;;28.37;;
62687;SDS011;48752;51.056;17.056;2022-11-30T16:41:35;69.47;;;30.02;;
62687;SDS011;48752;51.056;17.056;2022-11-30T16:44:07;70.72;;;27.52;;
62687;SDS011;48752;51.056;17.056;2022-11-30T16:46:40;68.35;;;30.35;;
62687;SDS011;48752;51.056;17.056;2022-11-30T16:49:06;67.80;;;28.77;;
62687;SDS011;48752;51.056;17.056;2022-11-30T16:51:32;63.75;;;26.58;;
62687;SDS011;48752;51.056;17.056;2022-11-30T16:53:59;65.85;;;29.17;;